Bodega Marine Reserve, California Weather observations

Data are for 10 minute period ending at time listed.
 Day   Time   Solar   Ave.   Ave.  Ave.  Vector  Max.   Baro.   Total    
  of    of     Rad.   Air    Rel.  Wind   Wind   Wind  Press.  Precip.   
Year   Day            Temp.  Hum.  Speed  Dir.   Gust                    
2014   (PST)  Kw/m2    F      %     mph   deg.    mph    mb.     in.     
-------------------------------------------------------------------------
 231    6:10   0.01   56.7    95    3.6   188     5.0   1007.5    0.00 
 231    6:20   0.01   56.7    95    4.0   198     5.5   1007.8    0.00 
 231    6:30   0.02   56.7    95    2.3   182     4.5   1007.8    0.00 
 231    6:40   0.03   56.8    94    1.1   122     2.4   1007.8    0.00 
 231    6:50   0.06   57.2    94    0.4    76     1.6   1007.8    0.00 
 231    7:00   0.07   57.2    94    0.3   312     1.8   1007.8    0.00 
 231    7:10   0.07   57.7    94    1.4   101     2.7   1007.8    0.00 
 231    7:20   0.07   57.8    93    2.1   136     3.6   1007.8    0.00 
 231    7:30   0.08   57.8    93    2.0   110     3.2   1008.1    0.00 
 231    7:40   0.08   58.0    92    2.7   117     4.6   1008.1    0.00 
 231    7:50   0.15   58.4    93    2.7   111     4.5   1008.1    0.00 
 231    8:00   0.14   58.5    92    2.9   114     5.2   1008.1    0.00 
 231    8:10   0.12   58.6    91    2.9   122     4.5   1008.1    0.00 
 231    8:20   0.13   58.9    91    3.7   105     6.9   1008.5    0.00 
 231    8:30   0.15   59.1    91    4.0   104     6.1   1008.5    0.00 
 231    8:40   0.13   59.2    90    2.9   117     5.0   1008.1    0.00 
 231    8:50   0.13   59.3    90    3.7   109     6.1   1008.5    0.00 
 231    9:00   0.16   59.2    91    4.7   102     7.5   1008.5    0.00 
 231    9:10   0.15   59.5    90    4.9   119     8.0   1008.5    0.00 
 231    9:20   0.15   59.5    91    4.8   128     7.7   1008.5    0.00 
 231    9:30   0.18   59.3    92    6.2   132     8.6   1008.5    0.00 
 231    9:40   0.19   59.9    91    5.3   154     7.7   1008.5    0.00 
 231    9:50   0.20   60.2    89    4.9   154     7.4   1008.5    0.00 
 231   10:00   0.19   60.1    89    5.3   144     7.3   1008.5    0.00 
 231   10:10   0.22   60.5    89    4.4   151     6.9   1008.8    0.00 
 231   10:20   0.22   60.6    88    4.1   137     5.7   1008.8    0.00 
 231   10:30   0.23   60.9    87    3.7   146     6.3   1008.8    0.00 
 231   10:40   0.23   61.6    84    4.3   169     7.1   1008.8    0.00 
 231   10:50   0.24   61.9    83    4.1   184     6.6   1008.8    0.00 
 231   11:00   0.26   61.9    83    4.2   155     8.0   1008.8    0.00 
 231   11:10   0.30   62.1    84    3.9   148     8.3   1008.8    0.00 
 231   11:20   0.25   62.5    82    5.2   148     9.1   1008.8    0.00 
 231   11:30   0.32   62.2    83    5.7   142     9.3   1009.1    0.00 
 231   11:40   0.38   62.4    83    5.3   129     8.7   1009.1    0.00 
 231   11:50   0.33   62.4    83    5.1   101     7.2   1009.1    0.00 
 231   12:00   0.29   62.4    83    3.9   124     6.3   1009.1    0.00 
 231   12:10   0.37   62.5    82    4.1   138     6.1   1009.1    0.00 
 231   12:20   0.38   63.2    79    4.3   174     8.0   1009.1    0.00 
 231   12:30   0.34   63.8    78    3.5   192     6.6   1009.1    0.00 
 231   12:40   0.36   63.4    78    4.4   196     8.2   1009.1    0.00 
 231   12:50   0.39   63.8    77    5.8   193     9.6   1008.8    0.00 
 231   13:00   0.35   63.3    78    5.7   188     8.7   1008.8    0.00 
 231   13:10   0.35   63.4    79    6.2   200     8.3   1008.8    0.00 
 231   13:20   0.36   64.0    78    5.2   182     8.3   1008.8    0.00 
 231   13:30   0.37   64.3    77    5.3   181     8.4   1008.8    0.00 
 231   13:40   0.38   65.0    74    5.1   188     8.7   1008.8    0.00 
 231   13:50   0.40   64.7    73    5.0   186     8.6   1008.5    0.00 
 231   14:00   0.39   65.3    73    4.8   200     9.1   1008.5    0.00 
 231   14:10   0.35   64.7    74    4.4   224     7.2   1008.5    0.00 
 231   14:20   0.37   64.3    76    3.6   236     6.5   1008.5    0.00 
 231   14:30   0.33   64.6    76    3.4   221     6.4   1008.5    0.00 
 231   14:40   0.29   64.3    77    4.2   238     7.8   1008.1    0.00 
 231   14:50   0.28   64.2    78    4.5   246     8.0   1008.1    0.00 
 231   15:00   0.22   64.4    77    4.5   231     8.3   1008.1    0.00 
 231   15:10   0.22   64.1    79    4.4   232     7.7   1008.1    0.00 
 231   15:20   0.21   64.0    80    4.8   220     8.8   1008.1    0.00 
 231   15:30   0.20   63.9    80    6.1   202     8.5   1008.1    0.00 
 231   15:40   0.20   62.9    82    6.8   192     9.1   1008.1    0.00 
 231   15:50   0.23   62.7    81    7.2   198     9.9   1007.8    0.00 
 231   16:00   0.20   62.7    80    6.9   197     9.6   1007.8    0.00 
 231   16:10   0.17   62.7    80    5.8   204     8.8   1007.8    0.00 
 231   16:20   0.17   62.7    80    5.8   195     8.6   1007.5    0.00 
 231   16:30   0.17   63.1    80    5.9   220     9.4   1007.8    0.00 
 231   16:40   0.12   62.6    80    5.4   225     8.3   1008.1    0.00 
 231   16:50   0.08   62.3    81    5.2   245     8.0   1008.1    0.00 
 231   17:00   0.07   62.2    81    5.3   207     8.3   1008.1    0.00 
 231   17:10   0.07   62.0    81    5.2   214     8.1   1008.1    0.00 
 231   17:20   0.07   61.8    82    3.8   175     7.3   1007.8    0.00 
 231   17:30   0.06   61.8    82    3.8   175     6.1   1007.5    0.00 
 231   17:40   0.05   61.7    83    3.3   227     6.0   1007.8    0.00 
 231   17:50   0.03   61.5    84    2.7   244     4.7   1007.8    0.00 
 231   18:00   0.03   61.2    84    2.5   217     4.5   1007.5    0.00 
 231   18:10   0.03   61.2    85    1.9   221     3.8   1007.5    0.00 
 231   18:20   0.01   61.2    85    1.7   248     4.0   1007.5    0.00 
 231   18:30   0.01   61.0    85    3.0   229     6.0   1007.5    0.00 
 231   18:40   0.00   60.9    85    2.8   162     8.3   1007.5    0.00 
 231   18:50   0.00   60.7    86    5.8   168    10.0   1007.5    0.00 
 231   19:00   0.00   60.5    86    3.9   171     6.6   1007.5    0.00 
 231   19:10   0.00   60.3    87    4.8   189     7.6   1007.5    0.00 
 231   19:20   0.00   60.0    88    4.3   201     7.2   1007.8    0.00 
 231   19:30   0.00   59.9    88    3.9   215     6.6   1007.8    0.00 
 231   19:40   0.00   60.0    88    2.7   218     5.0   1007.8    0.00 
 231   19:50   0.00   60.0    88    3.6   244     6.0   1007.8    0.00 
 231   20:00   0.00   59.9    88    4.8   247     7.6   1008.1    0.00 
 231   20:10   0.00   59.8    88    3.8   219     7.2   1008.1    0.00 
 231   20:20   0.00   59.7    88    2.9   241     5.6   1008.1    0.00 
 231   20:30   0.00   59.7    89    3.7   252     5.9   1008.1    0.00 
 231   20:40   0.00   59.6    89    3.8   249     5.8   1008.5    0.00 
 231   20:50   0.00   59.4    90    3.7   265     5.4   1008.5    0.00 
 231   21:00   0.00   59.3    90    3.1   254     4.9   1008.5    0.00 
 231   21:10   0.00   59.2    91    3.6   255     5.7   1008.5    0.00 
 231   21:20   0.00   59.2    91    3.3   276     4.6   1008.5    0.00 
 231   21:30   0.00   59.1    91    3.3   268     4.8   1008.5    0.00 
 231   21:40   0.00   59.1    92    2.8   235     5.5   1008.5    0.00 
 231   21:50   0.00   59.0    92    3.9   265     5.8   1008.5    0.00 
 231   22:00   0.00   58.8    92    3.3   297     5.6   1008.5    0.00 
 231   22:10   0.00   58.8    92    1.9   280     2.9   1008.5    0.00 
 231   22:20   0.00   58.8    93    4.1   273     7.1   1008.5    0.00 
 231   22:30   0.00   58.5    93    4.9   290     7.4   1008.5    0.00 
 231   22:40   0.00   58.2    94    3.8   298     5.4   1008.5    0.00 
 231   22:50   0.00   58.1    94    4.2   307     5.3   1008.5    0.00 
 231   23:00   0.00   57.9    95    4.4   303     5.8   1008.5    0.00 
 231   23:10   0.00   57.9    95    4.2   308     5.7   1008.5    0.00 
 231   23:20   0.00   57.8    95    3.9   305     5.6   1008.5    0.00 
 231   23:30   0.00   57.8    95    4.2   302     5.7   1008.8    0.00 
 231   23:40   0.00   57.7    96    4.9   303     6.6   1008.8    0.00 
 231   23:50   0.00   57.7    96    4.3   296     6.4   1008.8    0.00 
 232    0:00   0.00   57.6    96    5.1   307     6.5   1008.8    0.00 
 232    0:10   0.00   57.5    96    5.0   316     6.5   1008.5    0.00 
 232    0:20   0.00   57.5    96    4.4   316     5.9   1008.5    0.00 
 232    0:30   0.00   57.6    96    4.4   321     6.1   1008.5    0.00 
 232    0:40   0.00   57.6    96    5.0   324     8.0   1008.5    0.00 
 232    0:50   0.00   57.6    96    6.8   331     9.1   1008.1    0.00 
 232    1:00   0.00   57.6    96    6.5   335     9.1   1008.1    0.00 
 232    1:10   0.00   57.7    96    5.5   338     7.7   1008.1    0.00 
 232    1:20   0.00   57.7    96    4.0   327     6.8   1008.1    0.00 
 232    1:30   0.00   57.7    96    2.2   318     5.3   1008.1    0.00 
 232    1:40   0.00   57.7    96    1.4   257     2.9   1008.1    0.00 
 232    1:50   0.00   57.7    96    2.2   333     3.4   1008.1    0.00 
 232    2:00   0.00   57.7    96    1.8   325     3.4   1008.1    0.00 
 232    2:10   0.00   57.7    96    1.2   328     2.5   1008.1    0.00 
 232    2:20   0.00   57.7    96    1.7   339     2.3   1008.1    0.01 
 232    2:30   0.00   57.8    96    0.4   329     1.5   1008.1    0.00 
 232    2:40   0.00   57.8    96    1.0   307     1.8   1008.5    0.00 
 232    2:50   0.00   57.8    96    1.0   314     1.7   1008.5    0.00 
 232    3:00   0.00   57.9    96    0.1   308     0.9   1008.1    0.00 
 232    3:10   0.00   57.9    96    0.5   330     2.3   1008.1    0.00 
 232    3:20   0.00   57.9    96    0.3   349     1.1   1008.1    0.00 
 232    3:30   0.00   58.0    96    0.1   209     0.9   1008.1    0.00 
 232    3:40   0.00   58.0    96    0.9   282     1.3   1008.1    0.00 
 232    3:50   0.00   58.0    96    2.0   281     3.1   1008.5    0.00 
 232    4:00   0.00   57.9    96    2.8   289     3.9   1008.5    0.01 
 232    4:10   0.00   58.0    96    2.5   305     3.5   1008.5    0.00 
 232    4:20   0.00   57.9    96    1.7   315     2.9   1008.5    0.00 
 232    4:30   0.00   57.8    96    2.3   304     3.5   1008.5    0.00 
 232    4:40   0.00   57.8    97    2.5   317     3.7   1008.5    0.00 
 232    4:50   0.00   57.9    97    1.1   320     1.6   1008.5    0.00 
 232    5:00   0.00   57.9    97    0.7   345     2.1   1008.5    0.00 
 232    5:10   0.00   57.9    97    0.8   357     1.5   1008.5    0.00 
 232    5:20   0.00   57.9    97    0.7   333     1.5   1008.8    0.00 
 232    5:30   0.00   57.9    97    0.7   338     1.5   1008.8    0.00 
 232    5:40   0.00   58.0    97    1.0   313     1.9   1008.8    0.00 
 232    5:50   0.00   58.0    97    1.0   310     2.3   1008.8    0.00 
 232    6:00   0.01   58.0    97    1.5   306     2.6   1009.1    0.00 

Return to Bodega Marine Reserve graphs page.


Western Regional Climate Center,wrcc@dri.edu